sensor_id;sensor_type;location;lat;lon;timestamp;pressure;altitude;pressure_sealevel;temperature;humidity
51147;BME280;37207;53.060;18.726;2023-05-03T00:02:01;101569.96;;;9.08;69.57
51147;BME280;37207;53.060;18.726;2023-05-03T00:04:27;101570.33;;;9.07;69.76
51147;BME280;37207;53.060;18.726;2023-05-03T00:06:54;101570.67;;;9.06;69.83
51147;BME280;37207;53.060;18.726;2023-05-03T00:09:21;101570.55;;;9.05;69.88
51147;BME280;37207;53.060;18.726;2023-05-03T00:11:48;101573.87;;;9.02;69.92
51147;BME280;37207;53.060;18.726;2023-05-03T00:14:14;101570.70;;;8.97;69.90
51147;BME280;37207;53.060;18.726;2023-05-03T00:16:41;101571.83;;;8.92;69.94
51147;BME280;37207;53.060;18.726;2023-05-03T00:19:07;101570.02;;;8.88;70.16
51147;BME280;37207;53.060;18.726;2023-05-03T00:21:34;101571.92;;;8.83;70.07
51147;BME280;37207;53.060;18.726;2023-05-03T00:24:00;101573.25;;;8.78;70.15
51147;BME280;37207;53.060;18.726;2023-05-03T00:26:27;101578.34;;;8.71;70.38
51147;BME280;37207;53.060;18.726;2023-05-03T00:28:53;101578.18;;;8.65;70.45
51147;BME280;37207;53.060;18.726;2023-05-03T00:31:20;101576.40;;;8.60;70.43
51147;BME280;37207;53.060;18.726;2023-05-03T00:33:46;101578.75;;;8.56;70.62
51147;BME280;37207;53.060;18.726;2023-05-03T00:36:14;101583.04;;;8.52;70.96
51147;BME280;37207;53.060;18.726;2023-05-03T00:38:41;101583.39;;;8.49;70.98
51147;BME280;37207;53.060;18.726;2023-05-03T00:41:09;101584.23;;;8.43;71.06
51147;BME280;37207;53.060;18.726;2023-05-03T00:43:36;101583.98;;;8.36;71.00
51147;BME280;37207;53.060;18.726;2023-05-03T00:46:05;101583.83;;;8.34;71.27
51147;BME280;37207;53.060;18.726;2023-05-03T00:48:33;101589.27;;;8.33;71.25
51147;BME280;37207;53.060;18.726;2023-05-03T00:51:00;101592.38;;;8.30;71.26
51147;BME280;37207;53.060;18.726;2023-05-03T00:53:28;101592.45;;;8.25;71.57
51147;BME280;37207;53.060;18.726;2023-05-03T00:55:54;101591.34;;;8.21;71.76
51147;BME280;37207;53.060;18.726;2023-05-03T00:58:21;101593.63;;;8.14;71.82
51147;BME280;37207;53.060;18.726;2023-05-03T01:00:48;101594.14;;;8.06;71.83
51147;BME280;37207;53.060;18.726;2023-05-03T01:03:15;101595.73;;;7.97;71.78
51147;BME280;37207;53.060;18.726;2023-05-03T01:06:01;101595.38;;;7.92;72.02
51147;BME280;37207;53.060;18.726;2023-05-03T01:08:39;101594.59;;;7.84;71.92
51147;BME280;37207;53.060;18.726;2023-05-03T01:11:25;101588.25;;;7.77;71.52
51147;BME280;37207;53.060;18.726;2023-05-03T01:13:56;101585.10;;;7.69;71.90
51147;BME280;37207;53.060;18.726;2023-05-03T01:16:33;101590.76;;;7.61;71.89
51147;BME280;37207;53.060;18.726;2023-05-03T01:19:10;101592.45;;;7.56;71.94
51147;BME280;37207;53.060;18.726;2023-05-03T01:21:41;101588.33;;;7.52;71.87
51147;BME280;37207;53.060;18.726;2023-05-03T01:24:21;101592.61;;;7.45;71.98
51147;BME280;37207;53.060;18.726;2023-05-03T01:26:49;101596.33;;;7.34;72.00
51147;BME280;37207;53.060;18.726;2023-05-03T01:29:15;101596.23;;;7.24;71.79
51147;BME280;37207;53.060;18.726;2023-05-03T01:31:43;101597.39;;;7.17;71.85
51147;BME280;37207;53.060;18.726;2023-05-03T01:34:43;101597.89;;;7.08;71.78
51147;BME280;37207;53.060;18.726;2023-05-03T01:37:13;101598.14;;;6.96;71.80
51147;BME280;37207;53.060;18.726;2023-05-03T01:39:47;101598.70;;;6.91;72.30
51147;BME280;37207;53.060;18.726;2023-05-03T01:42:16;101601.66;;;6.86;72.22
51147;BME280;37207;53.060;18.726;2023-05-03T01:44:43;101601.88;;;6.78;72.00
51147;BME280;37207;53.060;18.726;2023-05-03T01:47:11;101602.07;;;6.69;72.04
51147;BME280;37207;53.060;18.726;2023-05-03T01:49:40;101601.55;;;6.59;72.07
51147;BME280;37207;53.060;18.726;2023-05-03T01:52:07;101599.25;;;6.51;72.25
51147;BME280;37207;53.060;18.726;2023-05-03T01:54:33;101605.73;;;6.43;72.35
51147;BME280;37207;53.060;18.726;2023-05-03T01:57:00;101605.46;;;6.36;72.35
51147;BME280;37207;53.060;18.726;2023-05-03T01:59:27;101608.77;;;6.28;72.56
51147;BME280;37207;53.060;18.726;2023-05-03T02:01:53;101609.46;;;6.23;72.56
51147;BME280;37207;53.060;18.726;2023-05-03T02:04:20;101606.87;;;6.18;72.87
51147;BME280;37207;53.060;18.726;2023-05-03T02:06:47;101605.70;;;6.11;72.77
51147;BME280;37207;53.060;18.726;2023-05-03T02:09:13;101608.37;;;6.05;72.76
51147;BME280;37207;53.060;18.726;2023-05-03T02:11:40;101607.82;;;5.98;72.80
51147;BME280;37207;53.060;18.726;2023-05-03T02:14:07;101609.95;;;5.90;72.80
51147;BME280;37207;53.060;18.726;2023-05-03T02:16:34;101609.94;;;5.84;73.00
51147;BME280;37207;53.060;18.726;2023-05-03T02:19:01;101608.83;;;5.77;73.08
51147;BME280;37207;53.060;18.726;2023-05-03T02:21:27;101608.64;;;5.69;73.07
51147;BME280;37207;53.060;18.726;2023-05-03T02:23:54;101605.92;;;5.61;73.04
51147;BME280;37207;53.060;18.726;2023-05-03T02:26:21;101604.15;;;5.56;73.17
51147;BME280;37207;53.060;18.726;2023-05-03T02:28:47;101604.83;;;5.51;73.20
51147;BME280;37207;53.060;18.726;2023-05-03T02:31:14;101604.57;;;5.49;73.41
51147;BME280;37207;53.060;18.726;2023-05-03T02:33:41;101605.95;;;5.46;73.31
51147;BME280;37207;53.060;18.726;2023-05-03T02:36:07;101602.74;;;5.42;73.50
51147;BME280;37207;53.060;18.726;2023-05-03T02:38:34;101601.77;;;5.40;73.37
51147;BME280;37207;53.060;18.726;2023-05-03T02:41:01;101611.27;;;5.39;73.50
51147;BME280;37207;53.060;18.726;2023-05-03T02:43:27;101607.69;;;5.38;73.60
51147;BME280;37207;53.060;18.726;2023-05-03T02:45:54;101609.64;;;5.38;73.52
51147;BME280;37207;53.060;18.726;2023-05-03T02:48:20;101611.38;;;5.38;73.30
51147;BME280;37207;53.060;18.726;2023-05-03T02:50:47;101612.27;;;5.34;73.18
51147;BME280;37207;53.060;18.726;2023-05-03T02:53:14;101617.64;;;5.31;73.30
51147;BME280;37207;53.060;18.726;2023-05-03T02:55:41;101620.05;;;5.32;73.48
51147;BME280;37207;53.060;18.726;2023-05-03T02:58:07;101619.84;;;5.35;73.50
51147;BME280;37207;53.060;18.726;2023-05-03T03:00:35;101623.19;;;5.36;73.31
51147;BME280;37207;53.060;18.726;2023-05-03T03:03:02;101622.46;;;5.37;73.18
51147;BME280;37207;53.060;18.726;2023-05-03T03:05:28;101621.69;;;5.36;73.20
51147;BME280;37207;53.060;18.726;2023-05-03T03:07:56;101627.27;;;5.38;73.06
51147;BME280;37207;53.060;18.726;2023-05-03T03:10:23;101629.73;;;5.39;73.07
51147;BME280;37207;53.060;18.726;2023-05-03T03:12:50;101631.29;;;5.40;73.00
51147;BME280;37207;53.060;18.726;2023-05-03T03:15:23;101629.27;;;5.36;72.74
51147;BME280;37207;53.060;18.726;2023-05-03T03:17:49;101626.95;;;5.32;72.72
51147;BME280;37207;53.060;18.726;2023-05-03T03:20:16;101631.36;;;5.26;72.56
51147;BME280;37207;53.060;18.726;2023-05-03T03:22:44;101631.98;;;5.20;72.62
51147;BME280;37207;53.060;18.726;2023-05-03T03:25:12;101626.91;;;5.11;72.59
51147;BME280;37207;53.060;18.726;2023-05-03T03:27:39;101629.34;;;5.06;72.74
51147;BME280;37207;53.060;18.726;2023-05-03T03:30:07;101631.22;;;5.06;73.09
51147;BME280;37207;53.060;18.726;2023-05-03T03:32:35;101637.13;;;5.13;73.38
51147;BME280;37207;53.060;18.726;2023-05-03T03:35:02;101639.48;;;5.17;73.34
51147;BME280;37207;53.060;18.726;2023-05-03T03:37:30;101643.39;;;5.20;73.21
51147;BME280;37207;53.060;18.726;2023-05-03T03:39:57;101646.48;;;5.21;73.48
51147;BME280;37207;53.060;18.726;2023-05-03T03:42:23;101645.70;;;5.25;73.41
51147;BME280;37207;53.060;18.726;2023-05-03T03:44:51;101637.95;;;5.29;73.20
51147;BME280;37207;53.060;18.726;2023-05-03T03:47:18;101642.90;;;5.33;73.26
51147;BME280;37207;53.060;18.726;2023-05-03T03:49:45;101643.48;;;5.37;73.13
51147;BME280;37207;53.060;18.726;2023-05-03T03:52:11;101647.78;;;5.41;73.05
51147;BME280;37207;53.060;18.726;2023-05-03T03:54:39;101652.48;;;5.49;72.91
51147;BME280;37207;53.060;18.726;2023-05-03T03:57:06;101652.86;;;5.60;72.86
51147;BME280;37207;53.060;18.726;2023-05-03T03:59:32;101653.80;;;5.74;72.85
51147;BME280;37207;53.060;18.726;2023-05-03T04:01:59;101655.18;;;5.82;72.65
51147;BME280;37207;53.060;18.726;2023-05-03T04:04:26;101656.67;;;5.86;72.51
51147;BME280;37207;53.060;18.726;2023-05-03T04:06:54;101658.77;;;5.93;72.62
51147;BME280;37207;53.060;18.726;2023-05-03T04:09:21;101664.15;;;6.09;72.66
51147;BME280;37207;53.060;18.726;2023-05-03T04:11:48;101660.64;;;6.30;72.60
51147;BME280;37207;53.060;18.726;2023-05-03T04:14:14;101663.05;;;6.43;72.09
51147;BME280;37207;53.060;18.726;2023-05-03T04:16:41;101665.21;;;6.69;72.14
51147;BME280;37207;53.060;18.726;2023-05-03T04:19:08;101670.69;;;6.93;71.95
51147;BME280;37207;53.060;18.726;2023-05-03T04:21:37;101672.73;;;7.07;71.32
51147;BME280;37207;53.060;18.726;2023-05-03T04:24:05;101676.42;;;7.26;71.27
51147;BME280;37207;53.060;18.726;2023-05-03T04:26:32;101676.38;;;7.62;70.96
51147;BME280;37207;53.060;18.726;2023-05-03T04:29:13;101678.77;;;7.97;70.84
51147;BME280;37207;53.060;18.726;2023-05-03T04:31:41;101683.27;;;8.16;70.35
51147;BME280;37207;53.060;18.726;2023-05-03T04:34:08;101682.20;;;8.42;69.65
51147;BME280;37207;53.060;18.726;2023-05-03T04:36:36;101685.23;;;8.87;69.23
51147;BME280;37207;53.060;18.726;2023-05-03T04:39:03;101686.77;;;9.20;68.37
51147;BME280;37207;53.060;18.726;2023-05-03T04:41:32;101689.52;;;9.18;66.98
51147;BME280;37207;53.060;18.726;2023-05-03T04:43:58;101690.61;;;9.19;67.12
51147;BME280;37207;53.060;18.726;2023-05-03T04:46:25;101693.09;;;9.27;66.91
51147;BME280;37207;53.060;18.726;2023-05-03T04:48:51;101694.77;;;9.26;66.56
51147;BME280;37207;53.060;18.726;2023-05-03T04:51:19;101697.27;;;9.20;65.94
51147;BME280;37207;53.060;18.726;2023-05-03T04:53:46;101699.33;;;9.04;65.38
51147;BME280;37207;53.060;18.726;2023-05-03T04:56:15;101702.22;;;8.87;65.61
51147;BME280;37207;53.060;18.726;2023-05-03T04:58:42;101700.76;;;8.73;65.51
51147;BME280;37207;53.060;18.726;2023-05-03T05:01:10;101701.92;;;8.59;65.62
51147;BME280;37207;53.060;18.726;2023-05-03T05:03:37;101708.78;;;8.64;65.91
51147;BME280;37207;53.060;18.726;2023-05-03T05:06:08;101712.25;;;8.59;65.69
51147;BME280;37207;53.060;18.726;2023-05-03T05:08:38;101710.93;;;8.42;65.97
51147;BME280;37207;53.060;18.726;2023-05-03T05:11:05;101713.61;;;8.28;66.18
51147;BME280;37207;53.060;18.726;2023-05-03T05:13:34;101717.54;;;8.22;66.86
51147;BME280;37207;53.060;18.726;2023-05-03T05:16:01;101719.60;;;8.18;67.00
51147;BME280;37207;53.060;18.726;2023-05-03T05:18:27;101721.03;;;8.18;67.29
51147;BME280;37207;53.060;18.726;2023-05-03T05:20:55;101725.83;;;8.18;67.45
51147;BME280;37207;53.060;18.726;2023-05-03T05:23:22;101726.52;;;8.21;67.52
51147;BME280;37207;53.060;18.726;2023-05-03T05:25:48;101727.03;;;8.25;67.85
51147;BME280;37207;53.060;18.726;2023-05-03T05:28:15;101728.77;;;8.27;67.87
51147;BME280;37207;53.060;18.726;2023-05-03T05:30:43;101729.50;;;8.34;67.94
51147;BME280;37207;53.060;18.726;2023-05-03T05:33:09;101730.19;;;8.45;68.17
51147;BME280;37207;53.060;18.726;2023-05-03T05:35:36;101728.09;;;8.51;68.14
51147;BME280;37207;53.060;18.726;2023-05-03T05:38:04;101732.71;;;8.59;68.08
51147;BME280;37207;53.060;18.726;2023-05-03T05:40:31;101730.79;;;8.67;67.87
51147;BME280;37207;53.060;18.726;2023-05-03T05:42:58;101733.50;;;8.64;68.08
51147;BME280;37207;53.060;18.726;2023-05-03T05:45:25;101739.60;;;8.62;68.30
51147;BME280;37207;53.060;18.726;2023-05-03T05:47:52;101743.73;;;8.61;67.97
51147;BME280;37207;53.060;18.726;2023-05-03T05:50:19;101744.70;;;8.56;67.84
51147;BME280;37207;53.060;18.726;2023-05-03T05:52:51;101746.83;;;8.48;67.84
51147;BME280;37207;53.060;18.726;2023-05-03T05:55:19;101746.37;;;8.40;67.87
51147;BME280;37207;53.060;18.726;2023-05-03T05:57:47;101752.89;;;8.38;68.22
51147;BME280;37207;53.060;18.726;2023-05-03T06:00:14;101754.05;;;8.39;68.29
51147;BME280;37207;53.060;18.726;2023-05-03T06:02:44;101750.71;;;8.43;68.72
51147;BME280;37207;53.060;18.726;2023-05-03T06:05:14;101754.46;;;8.46;68.64
51147;BME280;37207;53.060;18.726;2023-05-03T06:07:41;101763.20;;;8.50;68.64
51147;BME280;37207;53.060;18.726;2023-05-03T06:10:08;101764.56;;;8.52;68.48
51147;BME280;37207;53.060;18.726;2023-05-03T06:12:35;101768.73;;;8.52;68.12
51147;BME280;37207;53.060;18.726;2023-05-03T06:15:03;101766.97;;;8.55;68.33
51147;BME280;37207;53.060;18.726;2023-05-03T06:17:35;101775.45;;;8.63;68.80
51147;BME280;37207;53.060;18.726;2023-05-03T06:20:02;101772.40;;;8.72;68.69
51147;BME280;37207;53.060;18.726;2023-05-03T06:22:29;101772.34;;;8.77;68.27
51147;BME280;37207;53.060;18.726;2023-05-03T06:24:56;101773.21;;;8.79;67.78
51147;BME280;37207;53.060;18.726;2023-05-03T06:27:24;101768.93;;;8.84;67.81
51147;BME280;37207;53.060;18.726;2023-05-03T06:29:51;101767.88;;;8.92;68.05
51147;BME280;37207;53.060;18.726;2023-05-03T06:32:17;101773.20;;;9.02;67.65
51147;BME280;37207;53.060;18.726;2023-05-03T06:34:44;101771.67;;;9.10;67.41
51147;BME280;37207;53.060;18.726;2023-05-03T06:37:12;101773.86;;;9.22;67.31
51147;BME280;37207;53.060;18.726;2023-05-03T06:39:39;101779.01;;;9.34;66.69
51147;BME280;37207;53.060;18.726;2023-05-03T06:42:05;101776.52;;;9.45;65.91
51147;BME280;37207;53.060;18.726;2023-05-03T06:44:36;101774.34;;;9.56;66.03
51147;BME280;37207;53.060;18.726;2023-05-03T06:47:03;101778.52;;;9.69;65.69
51147;BME280;37207;53.060;18.726;2023-05-03T06:49:29;101779.36;;;9.80;65.11
51147;BME280;37207;53.060;18.726;2023-05-03T06:51:56;101781.23;;;9.93;64.43
51147;BME280;37207;53.060;18.726;2023-05-03T06:54:25;101781.61;;;10.06;64.47
51147;BME280;37207;53.060;18.726;2023-05-03T06:56:55;101785.73;;;10.23;63.95
51147;BME280;37207;53.060;18.726;2023-05-03T06:59:21;101786.16;;;10.38;63.44
51147;BME280;37207;53.060;18.726;2023-05-03T07:01:48;101787.89;;;10.50;62.37
51147;BME280;37207;53.060;18.726;2023-05-03T07:04:16;101790.00;;;10.62;61.75
51147;BME280;37207;53.060;18.726;2023-05-03T07:06:42;101791.38;;;10.71;60.47
51147;BME280;37207;53.060;18.726;2023-05-03T07:11:39;101781.27;;;10.97;60.77
51147;BME280;37207;53.060;18.726;2023-05-03T07:14:12;101787.48;;;11.18;58.82
51147;BME280;37207;53.060;18.726;2023-05-03T07:16:39;101790.16;;;11.26;58.60
51147;BME280;37207;53.060;18.726;2023-05-03T07:19:06;101792.25;;;11.39;58.01
51147;BME280;37207;53.060;18.726;2023-05-03T07:21:32;101793.77;;;11.53;57.25
51147;BME280;37207;53.060;18.726;2023-05-03T07:23:59;101792.91;;;11.67;55.99
51147;BME280;37207;53.060;18.726;2023-05-03T07:26:29;101793.65;;;11.75;56.14
51147;BME280;37207;53.060;18.726;2023-05-03T07:28:58;101788.41;;;11.95;56.75
51147;BME280;37207;53.060;18.726;2023-05-03T07:31:25;101790.05;;;12.21;56.47
51147;BME280;37207;53.060;18.726;2023-05-03T07:33:51;101791.98;;;12.42;55.88
51147;BME280;37207;53.060;18.726;2023-05-03T07:36:18;101792.74;;;12.65;54.73
51147;BME280;37207;53.060;18.726;2023-05-03T07:38:44;101791.70;;;12.82;55.40
51147;BME280;37207;53.060;18.726;2023-05-03T07:41:11;101797.70;;;13.02;53.71
51147;BME280;37207;53.060;18.726;2023-05-03T07:43:38;101799.73;;;13.12;53.35
51147;BME280;37207;53.060;18.726;2023-05-03T07:46:04;101802.15;;;13.19;51.60
51147;BME280;37207;53.060;18.726;2023-05-03T07:48:31;101802.67;;;13.20;51.88
51147;BME280;37207;53.060;18.726;2023-05-03T07:50:58;101802.55;;;13.26;52.14
51147;BME280;37207;53.060;18.726;2023-05-03T07:53:24;101798.81;;;13.36;52.78
51147;BME280;37207;53.060;18.726;2023-05-03T07:55:54;101795.92;;;13.64;53.74
51147;BME280;37207;53.060;18.726;2023-05-03T07:58:21;101803.30;;;13.90;53.85
51147;BME280;37207;53.060;18.726;2023-05-03T08:00:47;101806.66;;;14.20;53.54
51147;BME280;37207;53.060;18.726;2023-05-03T08:03:14;101806.55;;;14.44;52.55
51147;BME280;37207;53.060;18.726;2023-05-03T08:05:40;101800.85;;;14.67;52.42
51147;BME280;37207;53.060;18.726;2023-05-03T08:08:07;101801.11;;;14.91;51.67
51147;BME280;37207;53.060;18.726;2023-05-03T08:10:34;101801.09;;;14.97;49.91
51147;BME280;37207;53.060;18.726;2023-05-03T08:13:04;101796.05;;;14.98;49.78
51147;BME280;37207;53.060;18.726;2023-05-03T08:15:33;101791.94;;;15.07;50.17
51147;BME280;37207;53.060;18.726;2023-05-03T08:18:00;101797.45;;;15.23;50.53
51147;BME280;37207;53.060;18.726;2023-05-03T08:20:29;101799.73;;;15.48;49.55
51147;BME280;37207;53.060;18.726;2023-05-03T08:22:56;101799.50;;;15.63;49.46
51147;BME280;37207;53.060;18.726;2023-05-03T08:25:23;101799.48;;;15.83;48.88
51147;BME280;37207;53.060;18.726;2023-05-03T08:27:51;101798.66;;;15.95;48.08
51147;BME280;37207;53.060;18.726;2023-05-03T08:30:24;101798.76;;;15.94;46.62
51147;BME280;37207;53.060;18.726;2023-05-03T08:32:52;101797.25;;;15.95;46.79
51147;BME280;37207;53.060;18.726;2023-05-03T08:35:23;101806.64;;;16.09;47.05
51147;BME280;37207;53.060;18.726;2023-05-03T08:37:50;101808.25;;;16.21;46.65
51147;BME280;37207;53.060;18.726;2023-05-03T08:40:20;101805.45;;;16.28;45.12
51147;BME280;37207;53.060;18.726;2023-05-03T08:42:47;101806.54;;;16.30;45.49
51147;BME280;37207;53.060;18.726;2023-05-03T08:45:15;101809.83;;;16.41;44.26
51147;BME280;37207;53.060;18.726;2023-05-03T08:47:43;101812.21;;;16.16;44.14
51147;BME280;37207;53.060;18.726;2023-05-03T08:50:11;101809.48;;;16.22;45.49
51147;BME280;37207;53.060;18.726;2023-05-03T08:52:46;101803.97;;;16.55;46.45
51147;BME280;37207;53.060;18.726;2023-05-03T08:55:15;101804.44;;;16.84;45.43
51147;BME280;37207;53.060;18.726;2023-05-03T08:57:42;101802.09;;;16.80;45.21
51147;BME280;37207;53.060;18.726;2023-05-03T09:00:09;101806.73;;;16.94;45.09
51147;BME280;37207;53.060;18.726;2023-05-03T09:02:37;101806.33;;;17.12;44.27
51147;BME280;37207;53.060;18.726;2023-05-03T09:10:40;101806.15;;;18.02;41.90
51147;BME280;37207;53.060;18.726;2023-05-03T09:13:10;101803.27;;;18.54;40.91
51147;BME280;37207;53.060;18.726;2023-05-03T09:15:37;101798.61;;;19.47;37.71
51147;BME280;37207;53.060;18.726;2023-05-03T09:20:50;101796.13;;;20.47;38.73
51147;BME280;37207;53.060;18.726;2023-05-03T09:25:52;101800.78;;;20.24;36.84
51147;BME280;37207;53.060;18.726;2023-05-03T09:28:28;101802.09;;;20.10;37.53
51147;BME280;37207;53.060;18.726;2023-05-03T09:31:08;101805.91;;;20.10;38.05
51147;BME280;37207;53.060;18.726;2023-05-03T09:33:39;101806.97;;;20.17;38.08
51147;BME280;37207;53.060;18.726;2023-05-03T09:36:06;101803.65;;;20.27;38.67
51147;BME280;37207;53.060;18.726;2023-05-03T09:38:34;101809.05;;;20.16;37.40
51147;BME280;37207;53.060;18.726;2023-05-03T09:41:04;101808.40;;;20.11;38.31
51147;BME280;37207;53.060;18.726;2023-05-03T09:43:34;101807.73;;;20.33;38.57
51147;BME280;37207;53.060;18.726;2023-05-03T09:46:22;101800.44;;;20.50;38.59
51147;BME280;37207;53.060;18.726;2023-05-03T09:48:51;101798.77;;;20.72;38.50
51147;BME280;37207;53.060;18.726;2023-05-03T09:51:21;101793.27;;;20.79;35.72
51147;BME280;37207;53.060;18.726;2023-05-03T09:53:49;101794.55;;;20.62;36.99
51147;BME280;37207;53.060;18.726;2023-05-03T09:56:16;101802.12;;;20.46;35.69
51147;BME280;37207;53.060;18.726;2023-05-03T09:58:46;101802.81;;;20.29;36.21
51147;BME280;37207;53.060;18.726;2023-05-03T10:01:13;101799.78;;;20.26;36.29
51147;BME280;37207;53.060;18.726;2023-05-03T10:03:46;101799.34;;;20.15;35.12
51147;BME280;37207;53.060;18.726;2023-05-03T10:06:35;101795.98;;;20.04;35.50
51147;BME280;37207;53.060;18.726;2023-05-03T10:09:38;101798.70;;;19.99;36.77
51147;BME280;37207;53.060;18.726;2023-05-03T10:12:07;101803.84;;;19.84;36.46
51147;BME280;37207;53.060;18.726;2023-05-03T10:14:34;101799.35;;;20.08;37.50
51147;BME280;37207;53.060;18.726;2023-05-03T10:17:06;101793.29;;;20.45;36.79
51147;BME280;37207;53.060;18.726;2023-05-03T10:19:44;101788.29;;;20.77;36.28
51147;BME280;37207;53.060;18.726;2023-05-03T10:22:12;101785.64;;;20.49;34.73
51147;BME280;37207;53.060;18.726;2023-05-03T10:27:49;101789.96;;;19.65;34.94
51147;BME280;37207;53.060;18.726;2023-05-03T10:30:29;101786.20;;;19.89;36.02
51147;BME280;37207;53.060;18.726;2023-05-03T10:35:40;101779.71;;;22.03;31.99
51147;BME280;37207;53.060;18.726;2023-05-03T10:38:22;101777.80;;;22.73;29.83
51147;BME280;37207;53.060;18.726;2023-05-03T10:40:50;101775.13;;;23.04;29.90
51147;BME280;37207;53.060;18.726;2023-05-03T10:46:00;101768.73;;;23.17;31.65
51147;BME280;37207;53.060;18.726;2023-05-03T10:48:28;101774.26;;;23.31;31.96
51147;BME280;37207;53.060;18.726;2023-05-03T10:50:55;101772.56;;;23.65;30.81
51147;BME280;37207;53.060;18.726;2023-05-03T10:53:38;101771.90;;;22.81;30.81
51147;BME280;37207;53.060;18.726;2023-05-03T10:56:08;101773.88;;;23.93;29.29
51147;BME280;37207;53.060;18.726;2023-05-03T10:58:46;101768.36;;;25.04;28.91
51147;BME280;37207;53.060;18.726;2023-05-03T11:01:16;101768.08;;;26.14;28.55
51147;BME280;37207;53.060;18.726;2023-05-03T11:06:35;101773.52;;;27.67;26.80
51147;BME280;37207;53.060;18.726;2023-05-03T11:09:03;101778.08;;;26.96;26.16
51147;BME280;37207;53.060;18.726;2023-05-03T11:11:32;101775.42;;;26.66;26.55
51147;BME280;37207;53.060;18.726;2023-05-03T11:13:58;101776.86;;;26.75;26.72
51147;BME280;37207;53.060;18.726;2023-05-03T11:16:26;101773.48;;;26.81;27.66
51147;BME280;37207;53.060;18.726;2023-05-03T11:18:52;101780.29;;;26.80;26.61
51147;BME280;37207;53.060;18.726;2023-05-03T11:21:20;101778.48;;;26.50;25.59
51147;BME280;37207;53.060;18.726;2023-05-03T11:23:46;101779.31;;;26.11;25.58
51147;BME280;37207;53.060;18.726;2023-05-03T11:26:13;101780.77;;;25.29;26.53
51147;BME280;37207;53.060;18.726;2023-05-03T11:28:42;101784.02;;;24.84;27.21
51147;BME280;37207;53.060;18.726;2023-05-03T11:31:09;101778.84;;;23.88;26.78
51147;BME280;37207;53.060;18.726;2023-05-03T11:33:38;101785.89;;;22.80;28.48
51147;BME280;37207;53.060;18.726;2023-05-03T11:36:04;101785.13;;;22.06;29.40
51147;BME280;37207;53.060;18.726;2023-05-03T11:38:32;101787.44;;;21.38;30.28
51147;BME280;37207;53.060;18.726;2023-05-03T11:41:03;101788.90;;;20.85;30.61
51147;BME280;37207;53.060;18.726;2023-05-03T11:43:40;101790.67;;;20.30;31.11
51147;BME280;37207;53.060;18.726;2023-05-03T11:46:07;101792.47;;;20.02;31.57
51147;BME280;37207;53.060;18.726;2023-05-03T11:48:34;101786.90;;;20.30;32.48
51147;BME280;37207;53.060;18.726;2023-05-03T11:51:06;101784.05;;;20.82;32.39
51147;BME280;37207;53.060;18.726;2023-05-03T11:53:38;101782.65;;;20.79;30.77
51147;BME280;37207;53.060;18.726;2023-05-03T11:56:12;101777.80;;;20.87;30.87
51147;BME280;37207;53.060;18.726;2023-05-03T11:58:54;101774.48;;;21.14;31.08
51147;BME280;37207;53.060;18.726;2023-05-03T12:01:29;101772.01;;;21.72;32.18
51147;BME280;37207;53.060;18.726;2023-05-03T12:03:57;101779.86;;;22.04;31.22
51147;BME280;37207;53.060;18.726;2023-05-03T12:06:25;101778.50;;;21.78;30.84
51147;BME280;37207;53.060;18.726;2023-05-03T12:08:56;101776.29;;;21.36;30.42
51147;BME280;37207;53.060;18.726;2023-05-03T12:11:23;101775.87;;;21.23;31.53
51147;BME280;37207;53.060;18.726;2023-05-03T12:14:00;101778.29;;;21.13;31.50
51147;BME280;37207;53.060;18.726;2023-05-03T12:16:28;101782.70;;;20.75;31.55
51147;BME280;37207;53.060;18.726;2023-05-03T12:19:11;101787.10;;;20.24;31.60
51147;BME280;37207;53.060;18.726;2023-05-03T12:21:46;101788.35;;;20.11;32.80
51147;BME280;37207;53.060;18.726;2023-05-03T12:24:13;101781.33;;;20.62;33.39
51147;BME280;37207;53.060;18.726;2023-05-03T12:26:44;101782.63;;;21.16;32.04
51147;BME280;37207;53.060;18.726;2023-05-03T12:29:12;101779.29;;;21.61;32.17
51147;BME280;37207;53.060;18.726;2023-05-03T12:31:39;101778.17;;;21.92;30.89
51147;BME280;37207;53.060;18.726;2023-05-03T12:34:06;101776.64;;;22.05;30.35
51147;BME280;37207;53.060;18.726;2023-05-03T12:36:33;101780.29;;;21.71;30.35
51147;BME280;37207;53.060;18.726;2023-05-03T12:39:01;101775.52;;;21.29;30.72
51147;BME280;37207;53.060;18.726;2023-05-03T12:41:27;101777.55;;;20.87;30.84
51147;BME280;37207;53.060;18.726;2023-05-03T12:43:57;101780.07;;;20.35;31.00
51147;BME280;37207;53.060;18.726;2023-05-03T12:46:23;101778.88;;;19.82;31.07
51147;BME280;37207;53.060;18.726;2023-05-03T12:48:53;101778.10;;;19.45;31.91
51147;BME280;37207;53.060;18.726;2023-05-03T12:51:20;101774.87;;;19.15;32.82
51147;BME280;37207;53.060;18.726;2023-05-03T12:53:46;101776.95;;;18.95;33.35
51147;BME280;37207;53.060;18.726;2023-05-03T12:56:14;101777.92;;;19.25;33.21
51147;BME280;37207;53.060;18.726;2023-05-03T12:58:41;101779.29;;;19.85;31.46
51147;BME280;37207;53.060;18.726;2023-05-03T13:01:07;101774.66;;;19.97;31.08
51147;BME280;37207;53.060;18.726;2023-05-03T13:03:34;101771.55;;;19.53;31.48
51147;BME280;37207;53.060;18.726;2023-05-03T13:06:01;101770.94;;;19.15;32.25
51147;BME280;37207;53.060;18.726;2023-05-03T13:08:30;101763.52;;;19.06;33.12
51147;BME280;37207;53.060;18.726;2023-05-03T13:10:58;101770.13;;;19.57;33.19
51147;BME280;37207;53.060;18.726;2023-05-03T13:13:25;101769.12;;;19.90;31.96
51147;BME280;37207;53.060;18.726;2023-05-03T13:15:53;101765.32;;;19.54;31.33
51147;BME280;37207;53.060;18.726;2023-05-03T13:18:20;101768.82;;;19.13;32.23